Time;durP1;ratioP1;P1;durP2;ratioP2;P2;SDS_P1;SDS_P2;PMS_P1;PMS_P2;Temp;Humidity;BMP_temperature;BMP_pressure;BME280_temperature;BME280_humidity;BME280_pressure;Samples;Min_cycle;Max_cycle;Signal;HPM_P1;HPM_P2
2022/07/23 00:01:56;;;;;;;6.03;4.05;;;;;;;16.79;76.97;101790.50;5031670;28;20307;-55
2022/07/23 00:04:22;;;;;;;5.63;3.93;;;;;;;16.74;76.52;101793.59;5032256;28;20026;-53
2022/07/23 00:06:47;;;;;;;5.03;4.05;;;;;;;16.74;77.42;101790.06;5032052;28;20270;-54
2022/07/23 00:09:12;;;;;;;6.68;4.15;;;;;;;16.73;77.55;101793.72;5047622;28;20284;-56
2022/07/23 00:11:38;;;;;;;5.57;4.23;;;;;;;16.71;77.66;101798.38;5034879;28;20585;-55
2022/07/23 00:14:03;;;;;;;5.22;4.28;;;;;;;16.65;75.99;101784.53;5031785;28;20303;-54
2022/07/23 00:16:29;;;;;;;7.53;4.63;;;;;;;16.59;77.81;101797.63;5031745;28;20033;-55
2022/07/23 00:18:54;;;;;;;7.25;4.40;;;;;;;16.54;77.70;101784.63;5029961;28;20075;-54
2022/07/23 00:21:19;;;;;;;4.40;4.00;;;;;;;16.55;77.40;101783.59;5028358;28;20025;-53
2022/07/23 00:23:45;;;;;;;8.23;3.78;;;;;;;16.54;77.07;101794.50;5042070;28;20026;-54
2022/07/23 00:26:10;;;;;;;5.15;4.40;;;;;;;16.48;77.02;101793.19;5028999;28;20067;-55
2022/07/23 00:28:35;;;;;;;8.10;4.38;;;;;;;16.45;77.54;101788.09;5030049;28;20057;-54
2022/07/23 00:31:00;;;;;;;6.65;4.20;;;;;;;16.37;77.71;101785.22;5037737;28;20018;-55
2022/07/23 00:33:26;;;;;;;6.72;4.50;;;;;;;16.39;78.06;101791.31;5031065;28;20514;-54
2022/07/23 00:35:51;;;;;;;8.00;3.95;;;;;;;16.36;77.97;101788.91;5031309;28;20021;-55
2022/07/23 00:38:16;;;;;;;5.65;5.10;;;;;;;16.34;78.63;101782.81;5032422;28;20030;-55
2022/07/23 00:40:42;;;;;;;10.80;4.57;;;;;;;16.34;78.51;101789.03;5031646;28;20108;-55
2022/07/23 00:43:07;;;;;;;5.88;4.50;;;;;;;16.27;78.86;101780.66;5030235;28;20291;-54
2022/07/23 00:45:33;;;;;;;9.75;4.68;;;;;;;16.27;78.67;101777.97;5031253;28;20036;-54
2022/07/23 00:47:58;;;;;;;7.53;4.45;;;;;;;16.23;78.85;101781.06;5031243;28;20097;-54
2022/07/23 00:52:58;;;;;;;6.53;4.65;;;;;;;16.13;78.43;101782.81;5110653;22;20056;-46
2022/07/23 00:55:24;;;;;;;7.25;4.97;;;;;;;16.13;79.00;101780.97;5093944;28;20020;-47
2022/07/23 00:57:51;;;;;;;10.18;4.93;;;;;;;16.04;79.53;101782.63;5091757;28;20489;-47
2022/07/23 01:00:16;;;;;;;6.32;4.72;;;;;;;16.03;78.37;101780.06;5083908;28;20025;-47
2022/07/23 01:02:42;;;;;;;8.70;4.75;;;;;;;15.98;79.79;101793.00;5086752;28;20077;-47
2022/07/23 01:05:08;;;;;;;5.95;4.43;;;;;;;15.99;79.35;101782.16;5090018;28;20028;-47
2022/07/23 01:07:34;;;;;;;5.40;4.85;;;;;;;15.96;79.95;101785.09;5077977;28;20052;-47
2022/07/23 01:10:00;;;;;;;11.75;4.60;;;;;;;15.94;79.82;101781.72;5094227;28;20070;-47
2022/07/23 01:12:25;;;;;;;8.77;4.82;;;;;;;15.86;79.85;101781.50;5091950;28;20469;-49
2022/07/23 01:14:58;;;;;;;6.82;4.82;;;;;;;15.83;80.03;101777.25;5091761;28;20028;-49
2022/07/23 01:17:24;;;;;;;6.65;4.95;;;;;;;15.79;80.58;101767.78;5084484;28;20036;-48
2022/07/23 01:19:49;;;;;;;6.57;4.45;;;;;;;15.79;80.52;101764.25;5083013;28;20024;-50
2022/07/23 01:22:18;;;;;;;9.88;5.22;;;;;;;15.71;80.23;101771.06;5061111;28;20511;-47
2022/07/23 01:24:44;;;;;;;7.85;4.70;;;;;;;15.71;79.48;101770.22;5084473;28;20161;-48
2022/07/23 01:27:09;;;;;;;8.02;5.20;;;;;;;15.64;80.80;101777.91;5081090;28;20114;-47
2022/07/23 01:29:34;;;;;;;5.30;4.80;;;;;;;15.66;80.43;101772.44;5091664;28;20089;-48
2022/07/23 01:31:59;;;;;;;8.90;4.90;;;;;;;15.59;80.54;101774.78;5085183;28;20027;-49
2022/07/23 01:34:25;;;;;;;11.77;5.40;;;;;;;15.61;79.67;101767.44;5086023;28;20459;-47
2022/07/23 01:36:50;;;;;;;8.00;5.10;;;;;;;15.58;80.14;101772.22;5078372;28;20324;-48
2022/07/23 01:39:15;;;;;;;9.77;5.13;;;;;;;15.50;80.63;101771.03;5091338;28;20029;-47
2022/07/23 01:41:41;;;;;;;7.50;4.88;;;;;;;15.49;80.18;101769.31;5089838;28;20016;-47
2022/07/23 01:44:06;;;;;;;7.13;5.20;;;;;;;15.42;80.90;101767.28;5091335;28;20016;-47
2022/07/23 01:46:31;;;;;;;8.85;4.78;;;;;;;15.45;81.23;101767.03;5078624;28;20025;-48
2022/07/23 01:48:56;;;;;;;6.57;5.00;;;;;;;15.45;80.93;101767.84;5085686;28;20041;-49
2022/07/23 01:51:22;;;;;;;7.88;5.32;;;;;;;15.43;81.55;101769.81;5058718;28;20049;-50
2022/07/23 01:53:47;;;;;;;6.68;5.30;;;;;;;15.43;80.60;101760.94;5070999;28;20086;-49
2022/07/23 01:56:14;;;;;;;9.13;5.33;;;;;;;15.36;81.16;101757.94;5068245;28;20033;-49
2022/07/23 01:58:40;;;;;;;8.95;5.15;;;;;;;15.34;80.94;101760.72;5070563;28;20266;-49
2022/07/23 02:01:05;;;;;;;8.45;5.18;;;;;;;15.30;80.74;101755.75;5062556;28;20024;-49
2022/07/23 02:03:30;;;;;;;6.95;4.80;;;;;;;15.25;80.30;101758.78;5070715;28;20496;-48
2022/07/23 02:05:56;;;;;;;7.40;5.20;;;;;;;15.25;81.56;101761.47;5070197;28;20035;-48
2022/07/23 02:08:21;;;;;;;7.80;4.67;;;;;;;15.26;80.78;101765.03;5052040;28;20036;-49
2022/07/23 02:10:47;;;;;;;7.65;4.70;;;;;;;15.19;80.84;101759.31;5070477;28;20286;-48
2022/07/23 02:13:12;;;;;;;5.53;5.00;;;;;;;15.14;81.02;101761.53;5069842;28;20033;-49
2022/07/23 02:15:37;;;;;;;6.63;5.20;;;;;;;15.11;81.73;101759.94;5070878;28;20028;-47
2022/07/23 02:18:03;;;;;;;7.80;5.22;;;;;;;15.02;81.12;101754.47;5063656;28;20056;-48
2022/07/23 02:20:29;;;;;;;5.53;4.65;;;;;;;14.97;81.26;101753.03;5070382;28;20024;-48
2022/07/23 02:22:54;;;;;;;6.53;5.18;;;;;;;15.01;81.48;101755.47;5070600;28;20051;-49
2022/07/23 02:25:19;;;;;;;6.47;4.65;;;;;;;14.98;81.35;101751.19;5051985;28;20558;-48
2022/07/23 02:27:45;;;;;;;5.53;4.90;;;;;;;14.96;81.20;101755.84;5070337;28;20029;-48
2022/07/23 02:30:11;;;;;;;12.63;5.60;;;;;;;14.94;81.72;101760.47;5069925;28;20461;-47
2022/07/23 02:32:36;;;;;;;6.57;5.00;;;;;;;14.90;81.44;101753.66;5069722;28;20032;-47
2022/07/23 02:35:03;;;;;;;6.00;5.07;;;;;;;14.87;81.07;101748.53;5069537;28;20524;-47
2022/07/23 02:37:29;;;;;;;9.18;5.22;;;;;;;14.81;81.62;101747.22;5069863;28;20047;-48
2022/07/23 02:39:54;;;;;;;7.88;5.32;;;;;;;14.80;81.42;101748.19;5070160;28;20021;-47
2022/07/23 02:42:19;;;;;;;7.07;5.13;;;;;;;14.77;82.05;101751.97;5062125;28;20021;-47
2022/07/23 02:44:45;;;;;;;5.68;5.15;;;;;;;14.74;81.41;101751.38;5071325;28;20106;-47
2022/07/23 02:47:10;;;;;;;9.05;5.82;;;;;;;14.73;82.06;101763.03;5073953;28;20027;-47
2022/07/23 02:49:35;;;;;;;9.48;5.68;;;;;;;14.71;82.41;101752.44;5071606;28;20020;-47
2022/07/23 02:52:01;;;;;;;10.65;5.45;;;;;;;14.66;82.08;101764.50;5079347;28;20048;-47
2022/07/23 02:54:26;;;;;;;8.63;5.50;;;;;;;14.61;82.08;101756.81;5084286;28;20024;-48
2022/07/23 02:56:51;;;;;;;8.32;5.18;;;;;;;14.64;82.06;101766.41;5085584;28;20030;-48
2022/07/23 02:59:18;;;;;;;6.35;5.30;;;;;;;14.60;82.04;101769.34;5094153;28;20110;-49
2022/07/23 03:01:43;;;;;;;8.35;5.43;;;;;;;14.57;82.24;101766.00;5105259;28;20032;-49
2022/07/23 03:04:09;;;;;;;6.97;5.30;;;;;;;14.59;81.75;101761.47;5080724;28;20078;-47
2022/07/23 03:06:34;;;;;;;9.00;5.20;;;;;;;14.55;82.25;101773.31;5087218;28;20028;-48
2022/07/23 03:08:59;;;;;;;10.55;5.47;;;;;;;14.48;81.99;101770.28;5073944;28;20070;-48
2022/07/23 03:11:24;;;;;;;7.35;5.35;;;;;;;14.46;81.58;101764.19;5085070;28;20483;-48
2022/07/23 03:13:50;;;;;;;6.43;4.68;;;;;;;14.42;82.07;101766.28;5073795;28;20024;-47
2022/07/23 03:16:15;;;;;;;6.43;5.53;;;;;;;14.41;81.52;101763.72;5090483;28;20489;-49
2022/07/23 03:18:40;;;;;;;7.05;5.30;;;;;;;14.39;82.11;101771.00;5093589;28;20298;-48
2022/07/23 03:21:06;;;;;;;6.45;5.18;;;;;;;14.37;82.05;101776.47;5093193;28;20467;-49
2022/07/23 03:23:31;;;;;;;7.68;6.25;;;;;;;14.30;82.14;101774.38;5078038;28;20036;-46
2022/07/23 03:25:56;;;;;;;7.38;5.78;;;;;;;14.27;82.62;101778.13;5086507;28;20027;-47
2022/07/23 03:28:22;;;;;;;9.97;6.50;;;;;;;14.25;82.30;101780.94;5074871;28;20434;-47
2022/07/23 03:30:48;;;;;;;9.40;7.07;;;;;;;14.20;82.67;101784.94;5093585;28;20525;-49
2022/07/23 03:33:14;;;;;;;10.40;7.05;;;;;;;14.18;82.86;101781.53;5072802;28;20023;-49
2022/07/23 03:35:39;;;;;;;11.85;7.85;;;;;;;14.19;82.92;101786.75;5092170;28;20118;-47
2022/07/23 03:38:05;;;;;;;8.48;7.60;;;;;;;14.15;82.84;101782.59;5093048;28;20111;-48
2022/07/23 03:40:30;;;;;;;10.90;8.55;;;;;;;14.11;82.69;101786.50;5079901;28;20057;-46
2022/07/23 03:42:55;;;;;;;9.48;7.90;;;;;;;14.12;82.38;101782.88;5093436;28;20052;-47
2022/07/23 03:45:21;;;;;;;10.73;8.57;;;;;;;14.08;83.16;101786.72;5074982;28;20036;-46
2022/07/23 03:47:46;;;;;;;11.63;7.88;;;;;;;14.06;82.92;101786.84;5093103;28;20278;-46
2022/07/23 03:50:11;;;;;;;8.73;7.47;;;;;;;14.07;82.64;101783.22;5080193;28;20032;-47
2022/07/23 03:52:37;;;;;;;9.82;8.07;;;;;;;14.05;82.95;101778.94;5085237;28;20373;-46
2022/07/23 03:55:03;;;;;;;10.02;8.32;;;;;;;14.02;82.99;101781.84;5086816;28;20661;-49
2022/07/23 03:57:29;;;;;;;8.80;6.90;;;;;;;14.02;82.55;101782.72;5058414;28;20385;-47
2022/07/23 03:59:54;;;;;;;9.15;7.32;;;;;;;13.99;82.94;101782.94;5101465;28;20020;-47
2022/07/23 04:02:19;;;;;;;9.30;7.50;;;;;;;13.98;83.34;101777.72;5099539;28;20060;-47
2022/07/23 04:04:45;;;;;;;9.45;7.93;;;;;;;13.97;83.44;101784.00;5086936;28;20054;-47
2022/07/23 04:07:10;;;;;;;9.05;7.85;;;;;;;13.94;83.40;101787.78;5076282;28;20641;-48
2022/07/23 04:09:35;;;;;;;12.15;8.25;;;;;;;13.94;83.19;101789.59;5074810;28;20095;-49
2022/07/23 04:12:01;;;;;;;9.95;7.90;;;;;;;13.90;83.46;101793.47;5093119;28;20028;-47
2022/07/23 04:14:26;;;;;;;9.75;8.32;;;;;;;13.92;83.49;101797.72;5082542;28;20406;-48
2022/07/23 04:16:51;;;;;;;8.30;7.47;;;;;;;13.94;83.75;101795.78;5080527;28;20507;-48
2022/07/23 04:19:17;;;;;;;11.52;8.27;;;;;;;13.95;83.53;101796.63;5079762;28;20028;-47
2022/07/23 04:21:42;;;;;;;9.45;8.43;;;;;;;13.95;84.13;101792.13;5089891;28;20115;-47
2022/07/23 04:24:07;;;;;;;8.77;7.95;;;;;;;13.95;84.10;101797.47;5085493;28;20044;-47
2022/07/23 04:26:33;;;;;;;9.15;7.68;;;;;;;13.92;84.15;101803.06;5077486;28;20458;-47
2022/07/23 04:28:58;;;;;;;10.40;8.65;;;;;;;13.94;84.27;101805.59;5092854;28;20024;-49
2022/07/23 04:31:23;;;;;;;9.15;8.10;;;;;;;13.91;84.49;101808.53;5091377;28;20024;-46
2022/07/23 04:33:48;;;;;;;12.50;8.23;;;;;;;13.90;85.01;101807.66;5079766;28;20371;-48
2022/07/23 04:36:14;;;;;;;8.27;7.53;;;;;;;13.91;84.68;101811.22;5081011;28;20277;-46
2022/07/23 04:38:39;;;;;;;9.05;8.15;;;;;;;13.93;85.12;101814.59;5073728;28;20385;-47
2022/07/23 04:41:04;;;;;;;10.07;8.30;;;;;;;13.91;85.22;101816.53;5084385;28;20028;-47
2022/07/23 04:43:30;;;;;;;10.18;8.60;;;;;;;13.94;85.29;101819.84;5073124;28;20020;-48
2022/07/23 04:45:55;;;;;;;12.43;8.90;;;;;;;13.94;85.49;101825.19;5075227;28;20099;-47
2022/07/23 04:48:20;;;;;;;10.95;9.23;;;;;;;13.96;85.56;101823.22;5087805;28;20404;-47
2022/07/23 04:50:46;;;;;;;10.35;9.27;;;;;;;13.98;85.72;101826.63;5092751;28;20043;-48
2022/07/23 04:53:11;;;;;;;10.43;9.18;;;;;;;13.97;85.89;101830.28;5091949;28;20524;-48
2022/07/23 04:55:36;;;;;;;13.98;9.55;;;;;;;14.00;85.56;101829.19;5060852;28;20024;-46
2022/07/23 04:58:02;;;;;;;13.60;9.75;;;;;;;14.01;86.17;101820.22;5081691;28;20028;-47
2022/07/23 05:00:27;;;;;;;10.45;9.15;;;;;;;14.05;86.25;101827.91;5105083;28;20060;-48
2022/07/23 05:02:52;;;;;;;12.35;9.90;;;;;;;14.07;86.28;101819.75;5093507;28;20220;-47
2022/07/23 05:05:17;;;;;;;11.82;9.00;;;;;;;14.16;85.70;101819.06;5091737;28;20034;-49
2022/07/23 05:07:43;;;;;;;11.60;9.57;;;;;;;14.23;86.03;101833.63;5077396;28;20029;-47
2022/07/23 05:10:08;;;;;;;13.48;10.15;;;;;;;14.29;86.63;101827.00;5092643;28;20469;-47
2022/07/23 05:12:33;;;;;;;12.82;10.23;;;;;;;14.32;86.44;101836.56;5092294;28;20032;-49
2022/07/23 05:14:59;;;;;;;13.18;10.60;;;;;;;14.38;86.19;101825.41;5106921;28;20020;-45
2022/07/23 05:17:24;;;;;;;11.10;9.98;;;;;;;14.42;85.95;101825.06;5096027;28;20032;-46
2022/07/23 05:19:50;;;;;;;13.27;10.07;;;;;;;14.48;85.84;101831.75;5096941;28;20506;-48
2022/07/23 05:22:15;;;;;;;12.60;10.00;;;;;;;14.54;85.16;101835.78;5091500;28;20024;-46
2022/07/23 05:24:40;;;;;;;10.70;9.60;;;;;;;14.60;85.48;101833.53;5099273;28;20052;-48
2022/07/23 05:27:06;;;;;;;11.48;10.27;;;;;;;14.61;86.16;101840.56;5077268;28;20613;-49
2022/07/23 05:29:31;;;;;;;12.90;10.32;;;;;;;14.70;85.94;101838.97;5081490;28;20052;-47
2022/07/23 05:31:56;;;;;;;13.80;10.37;;;;;;;14.78;86.15;101843.72;5101450;28;20070;-46
2022/07/23 05:34:22;;;;;;;12.10;10.23;;;;;;;14.85;85.67;101836.09;5077326;28;20301;-48
2022/07/23 05:36:48;;;;;;;11.70;10.15;;;;;;;14.97;85.16;101832.41;5091304;28;20028;-48
2022/07/23 05:39:14;;;;;;;13.27;9.80;;;;;;;15.12;84.85;101833.03;5082399;28;20452;-48
2022/07/23 05:41:39;;;;;;;16.75;10.00;;;;;;;15.21;84.96;101844.84;5072882;28;20048;-50
2022/07/23 05:44:04;;;;;;;11.90;10.25;;;;;;;15.37;84.15;101839.94;5080175;28;20035;-50
2022/07/23 05:46:30;;;;;;;15.00;10.05;;;;;;;15.49;83.93;101843.44;5079697;28;20025;-48
2022/07/23 05:48:55;;;;;;;14.70;9.63;;;;;;;15.61;83.35;101847.78;5083179;28;20039;-46
2022/07/23 05:51:21;;;;;;;15.33;10.07;;;;;;;15.77;83.42;101850.09;5073156;28;20051;-46
2022/07/23 05:53:47;;;;;;;14.02;10.05;;;;;;;15.94;83.11;101854.06;5085117;28;20262;-48
2022/07/23 05:56:13;;;;;;;14.02;9.27;;;;;;;16.10;82.38;101856.28;5072032;28;20024;-46
2022/07/23 05:58:38;;;;;;;12.13;9.05;;;;;;;16.27;81.74;101860.25;5081301;28;20027;-46
2022/07/23 06:01:03;;;;;;;12.80;9.13;;;;;;;16.42;80.44;101866.09;5085445;28;20048;-47
2022/07/23 06:03:28;;;;;;;11.85;8.75;;;;;;;16.58;80.52;101855.75;5084683;28;20294;-49
2022/07/23 06:05:54;;;;;;;11.45;8.73;;;;;;;16.71;80.07;101860.09;5085225;28;20048;-48
2022/07/23 06:08:19;;;;;;;10.25;9.07;;;;;;;16.92;79.46;101865.44;5080587;28;20435;-46
2022/07/23 06:10:44;;;;;;;9.77;8.77;;;;;;;17.01;78.04;101868.16;5088580;28;20047;-47
2022/07/23 06:13:09;;;;;;;10.00;8.93;;;;;;;17.20;77.78;101870.09;5085058;28;20503;-47
2022/07/23 06:15:35;;;;;;;11.75;8.50;;;;;;;17.34;77.68;101874.22;5077732;28;20115;-48
2022/07/23 06:18:00;;;;;;;12.40;8.73;;;;;;;17.51;76.94;101867.34;5084223;28;20030;-46
2022/07/23 06:20:25;;;;;;;9.80;8.80;;;;;;;17.62;76.52;101868.19;5087603;28;20024;-49
2022/07/23 06:22:51;;;;;;;11.15;8.50;;;;;;;17.66;76.63;101854.34;5086385;28;20338;-47
2022/07/23 06:25:16;;;;;;;8.95;8.05;;;;;;;17.82;76.46;101863.69;5087585;28;20094;-46
2022/07/23 06:27:41;;;;;;;10.52;7.95;;;;;;;18.00;74.73;101863.88;5089127;28;20051;-46
2022/07/23 06:30:08;;;;;;;11.13;7.88;;;;;;;18.11;74.62;101866.44;5085725;28;20046;-47
2022/07/23 06:32:33;;;;;;;10.63;7.95;;;;;;;18.20;72.98;101865.59;5088797;28;20044;-46
2022/07/23 06:34:58;;;;;;;9.90;7.57;;;;;;;18.34;72.79;101868.84;5088601;28;20032;-49
2022/07/23 06:37:24;;;;;;;8.03;7.20;;;;;;;18.47;73.70;101864.84;5088062;28;20042;-49
2022/07/23 06:39:49;;;;;;;7.95;6.75;;;;;;;18.65;71.54;101870.34;5083440;28;20788;-46
2022/07/23 06:42:14;;;;;;;7.30;6.10;;;;;;;18.90;70.48;101869.84;5080474;28;20236;-49
2022/07/23 06:44:40;;;;;;;11.35;6.72;;;;;;;18.97;68.40;101873.66;5068585;28;20329;-46
2022/07/23 06:47:05;;;;;;;7.75;5.90;;;;;;;19.16;67.80;101870.03;5086023;28;20097;-46
2022/07/23 06:49:31;;;;;;;7.18;5.75;;;;;;;19.32;67.49;101864.84;5084008;28;20451;-49
2022/07/23 06:51:56;;;;;;;10.57;5.97;;;;;;;19.47;66.60;101880.50;5093015;28;20636;-45
2022/07/23 06:54:21;;;;;;;10.73;5.38;;;;;;;19.74;66.21;101885.84;5104393;28;20032;-48
2022/07/23 06:56:46;;;;;;;8.65;5.35;;;;;;;19.84;66.22;101880.44;5098189;28;20033;-45
2022/07/23 06:59:12;;;;;;;5.83;4.37;;;;;;;19.95;64.45;101872.13;5107260;28;20024;-45
2022/07/23 07:01:37;;;;;;;7.00;4.85;;;;;;;20.32;64.26;101867.53;5110803;28;20282;-46
2022/07/23 07:04:03;;;;;;;6.82;4.75;;;;;;;20.42;63.14;101868.28;5087395;28;20481;-47
2022/07/23 07:06:28;;;;;;;7.20;4.40;;;;;;;20.57;61.67;101870.41;5093775;28;20044;-45
2022/07/23 07:08:55;;;;;;;8.80;4.70;;;;;;;20.75;61.86;101867.69;5105745;28;20032;-46
2022/07/23 07:11:20;;;;;;;10.00;4.13;;;;;;;20.92;60.22;101866.78;5108428;28;20024;-46
2022/07/23 07:13:46;;;;;;;7.00;4.28;;;;;;;21.02;60.15;101872.91;5110350;28;20043;-46
2022/07/23 07:16:11;;;;;;;7.17;4.10;;;;;;;21.15;59.86;101867.06;5110183;28;20024;-46
2022/07/23 07:18:36;;;;;;;7.85;3.70;;;;;;;21.34;58.10;101870.50;5110858;28;20396;-46
2022/07/23 07:21:02;;;;;;;4.90;3.70;;;;;;;21.48;58.33;101867.19;5102671;28;20036;-45
2022/07/23 07:23:27;;;;;;;6.95;4.10;;;;;;;21.79;58.23;101870.13;5110299;28;20054;-45
2022/07/23 07:25:52;;;;;;;5.77;3.30;;;;;;;21.90;56.21;101868.97;5100969;28;20035;-44
2022/07/23 07:28:18;;;;;;;3.85;3.08;;;;;;;21.98;56.74;101876.25;5094173;28;20290;-45
2022/07/23 07:30:43;;;;;;;6.50;3.43;;;;;;;22.16;55.48;101874.22;5096459;28;20405;-46
2022/07/23 07:33:08;;;;;;;6.05;3.53;;;;;;;22.29;55.02;101875.63;5099314;28;20302;-45
2022/07/23 07:35:34;;;;;;;5.33;3.17;;;;;;;22.46;55.55;101881.84;5106000;28;20118;-45
2022/07/23 07:37:59;;;;;;;4.97;3.40;;;;;;;22.67;55.07;101890.28;5107011;28;21369;-44
2022/07/23 07:40:26;;;;;;;3.08;2.75;;;;;;;22.88;53.23;101883.47;5120285;28;20036;-45
2022/07/23 07:42:52;;;;;;;6.43;3.85;;;;;;;22.88;53.59;101878.91;5107227;28;20047;-45
2022/07/23 07:45:20;;;;;;;5.25;3.05;;;;;;;22.99;52.64;101876.84;5106850;28;20035;-45
2022/07/23 07:47:46;;;;;;;3.35;3.00;;;;;;;23.20;50.93;101879.84;5105532;28;20028;-45
2022/07/23 07:50:11;;;;;;;6.03;3.42;;;;;;;23.38;50.46;101885.03;5106108;28;20378;-45
2022/07/23 07:52:36;;;;;;;4.60;3.20;;;;;;;23.70;49.99;101880.44;5070693;28;20044;-45
2022/07/23 07:55:07;;;;;;;6.80;3.95;;;;;;;23.86;49.89;101884.91;5096716;28;20020;-46
2022/07/23 07:57:32;;;;;;;5.38;3.15;;;;;;;23.89;49.10;101881.84;5086934;28;20036;-45
2022/07/23 07:59:58;;;;;;;5.38;3.17;;;;;;;24.06;48.39;101874.41;5077669;28;20115;-46
2022/07/23 08:02:23;;;;;;;4.97;2.80;;;;;;;24.34;48.64;101888.25;5088197;28;20024;-45
2022/07/23 08:04:48;;;;;;;6.45;3.17;;;;;;;24.30;48.81;101883.41;5095638;28;20442;-45
2022/07/23 08:07:14;;;;;;;4.82;2.63;;;;;;;24.40;45.39;101886.72;5104567;28;20020;-46
2022/07/23 08:09:39;;;;;;;5.13;2.47;;;;;;;24.71;45.60;101881.16;5107772;28;20319;-47
2022/07/23 08:12:05;;;;;;;5.30;2.60;;;;;;;24.73;45.59;101879.09;5109335;28;20028;-46
2022/07/23 08:14:30;;;;;;;5.07;3.60;;;;;;;24.99;45.41;101885.09;5109086;28;20293;-45
2022/07/23 08:16:55;;;;;;;5.77;3.77;;;;;;;25.12;45.47;101885.28;5107276;28;20061;-45
2022/07/23 08:19:21;;;;;;;6.53;3.55;;;;;;;25.35;45.02;101885.19;5109968;28;20297;-47
2022/07/23 08:21:46;;;;;;;6.00;3.20;;;;;;;25.42;45.04;101888.81;5109586;28;20023;-44
2022/07/23 08:24:11;;;;;;;5.47;3.10;;;;;;;25.59;45.50;101891.31;5103578;28;20096;-46
2022/07/23 08:26:37;;;;;;;6.17;3.43;;;;;;;25.70;44.29;101895.41;5110404;28;20286;-44
2022/07/23 08:29:02;;;;;;;4.37;2.80;;;;;;;25.84;43.57;101903.53;5105929;28;20262;-46
2022/07/23 08:31:27;;;;;;;3.83;2.87;;;;;;;26.10;43.42;101898.59;5110143;28;20286;-49
2022/07/23 08:33:52;;;;;;;5.30;2.97;;;;;;;26.10;42.46;101898.59;5109018;28;20281;-45
2022/07/23 08:36:18;;;;;;;5.57;3.40;;;;;;;26.25;42.43;101906.66;5111128;28;20266;-46
2022/07/23 08:38:43;;;;;;;4.32;2.83;;;;;;;26.53;42.61;101902.09;5079835;28;20285;-45
2022/07/23 08:41:09;;;;;;;4.93;3.37;;;;;;;26.57;41.17;101903.38;5110532;28;20032;-47
2022/07/23 08:43:35;;;;;;;5.00;3.33;;;;;;;26.74;40.79;101916.72;5109421;28;20297;-46
2022/07/23 08:46:02;;;;;;;6.43;3.60;;;;;;;26.81;41.32;101912.16;5109963;28;20074;-47
2022/07/23 08:48:30;;;;;;;3.95;2.72;;;;;;;26.90;42.08;101915.59;5107938;28;20048;-45
2022/07/23 08:50:57;;;;;;;4.65;2.78;;;;;;;27.15;39.77;101896.84;5111555;28;20020;-46
2022/07/23 08:53:25;;;;;;;3.38;2.28;;;;;;;27.19;40.25;101903.56;5102622;28;20051;-45
2022/07/23 08:56:01;;;;;;;6.43;3.67;;;;;;;27.26;41.10;101909.91;5101881;28;20029;-46
2022/07/23 08:58:27;;;;;;;5.00;2.88;;;;;;;27.55;40.59;101909.84;5113185;28;20027;-45
2022/07/23 09:00:53;;;;;;;6.35;2.80;;;;;;;27.52;41.43;101915.72;5120391;28;20024;-45
2022/07/23 09:03:23;;;;;;;4.35;2.60;;;;;;;27.78;40.36;101912.19;5127136;28;20123;-44
2022/07/23 09:05:51;;;;;;;5.75;3.17;;;;;;;27.89;38.98;101903.41;5120602;28;20015;-44
2022/07/23 09:08:21;;;;;;;5.55;3.53;;;;;;;27.92;38.90;101896.72;5116192;28;20063;-45
2022/07/23 09:10:51;;;;;;;9.40;2.83;;;;;;;28.12;38.84;101899.50;5110409;28;20032;-46
2022/07/23 09:13:26;;;;;;;7.35;2.97;;;;;;;28.01;40.13;101893.59;5104934;28;20039;-46
2022/07/23 09:15:54;;;;;;;4.25;2.90;;;;;;;28.25;38.84;101902.22;5087987;28;20039;-45
2022/07/23 09:18:30;;;;;;;5.90;2.65;;;;;;;28.53;39.71;101893.81;5090519;28;20054;-47
2022/07/23 09:21:12;;;;;;;2.75;2.20;;;;;;;28.74;39.86;101883.69;5090138;28;20046;-44
2022/07/23 09:24:07;;;;;;;4.07;2.60;;;;;;;28.84;40.32;101886.81;5088212;28;20304;-47
2022/07/23 09:26:40;;;;;;;4.18;2.88;;;;;;;28.64;37.32;101881.41;5070610;28;20036;-45
2022/07/23 09:29:13;;;;;;;4.18;2.60;;;;;;;28.82;38.45;101893.59;5086371;28;20028;-47
2022/07/23 09:31:48;;;;;;;4.20;2.50;;;;;;;29.15;37.34;101885.28;5088854;28;20363;-44
2022/07/23 09:34:17;;;;;;;3.63;2.80;;;;;;;29.15;36.35;101891.56;5088411;28;20019;-46
2022/07/23 09:36:42;;;;;;;;;;;;;;;29.65;38.04;101890.94;5087665;28;20031;-45
2022/07/23 09:39:08;;;;;;;4.90;2.58;;;;;;;29.15;35.37;101898.94;5086828;28;19908;-42
2022/07/23 09:41:43;;;;;;;3.70;2.47;;;;;;;29.21;35.55;101900.00;5091216;28;20073;-43
2022/07/23 09:44:14;;;;;;;4.97;2.90;;;;;;;29.17;35.59;101899.59;5085659;28;20028;-45
2022/07/23 09:46:40;;;;;;;6.70;2.60;;;;;;;29.08;35.44;101898.16;5085549;28;20040;-43
2022/07/23 09:49:16;;;;;;;3.60;2.42;;;;;;;29.51;37.75;101908.50;5085610;28;20056;-44
2022/07/23 09:51:52;;;;;;;5.22;2.80;;;;;;;29.74;37.22;101898.91;5065053;28;20716;-44
2022/07/23 09:54:32;;;;;;;5.15;2.63;;;;;;;29.76;36.61;101900.38;5070044;28;20041;-46
2022/07/23 09:57:00;;;;;;;3.45;2.47;;;;;;;29.77;34.70;101904.81;5070734;28;20036;-47
2022/07/23 09:59:30;;;;;;;5.85;2.75;;;;;;;29.98;34.04;101898.16;5059588;28;20399;-45
2022/07/23 10:01:59;;;;;;;4.95;2.92;;;;;;;29.99;34.27;101898.97;5067005;28;20024;-45
2022/07/23 10:04:25;;;;;;;;;;;;;;;30.62;37.76;101907.09;5069554;28;20043;-48
2022/07/23 10:06:53;;;;;;;3.45;2.47;;;;;;;30.52;34.23;101895.00;5070743;28;19920;-48
2022/07/23 10:09:25;;;;;;;5.65;2.75;;;;;;;30.54;35.08;101901.06;5071422;28;20016;-45
2022/07/23 10:11:53;;;;;;;5.38;3.13;;;;;;;30.56;34.67;101901.69;5069171;28;20031;-46
2022/07/23 10:14:19;;;;;;;2.90;2.50;;;;;;;30.61;34.77;101897.22;5065949;28;20123;-45
2022/07/23 10:16:44;;;;;;;3.58;2.65;;;;;;;30.98;34.51;101897.25;5067997;28;20103;-47
2022/07/23 10:19:10;;;;;;;5.95;2.65;;;;;;;30.98;34.44;101889.03;5065140;28;20052;-47
2022/07/23 10:21:47;;;;;;;7.22;2.95;;;;;;;30.93;34.31;101890.78;5061116;28;20410;-44
2022/07/23 10:24:16;;;;;;;3.50;2.88;;;;;;;30.97;33.00;101889.25;5070510;28;20041;-46
2022/07/23 10:27:14;;;;;;;5.15;2.60;;;;;;;31.33;34.63;101888.41;5063834;28;20491;-46
2022/07/23 10:29:46;;;;;;;;;;;;;;;31.72;35.76;101896.34;5059456;28;20036;-46
2022/07/23 10:32:30;;;;;;;3.92;2.30;;;;;;;31.58;34.72;101895.69;5070515;28;19995;-45
2022/07/23 10:35:20;;;;;;;4.03;2.30;;;;;;;31.19;33.72;101889.63;5066453;28;20048;-44
2022/07/23 10:37:51;;;;;;;3.67;2.60;;;;;;;31.11;32.17;101893.53;5068483;28;20498;-43
2022/07/23 10:40:20;;;;;;;3.63;2.00;;;;;;;31.30;31.97;101890.78;5065542;28;20468;-43
2022/07/23 10:42:47;;;;;;;3.10;1.70;;;;;;;31.66;30.22;101900.00;5062579;28;20021;-45
2022/07/23 10:45:35;;;;;;;3.42;1.77;;;;;;;31.84;33.12;101897.22;5057339;28;20093;-45
2022/07/23 10:48:26;;;;;;;1.90;1.70;;;;;;;31.83;32.14;101891.97;5052655;28;20037;-42
2022/07/23 10:51:11;;;;;;;1.90;1.45;;;;;;;31.81;31.72;101886.69;5062458;28;20057;-46
2022/07/23 10:53:51;;;;;;;2.63;2.10;;;;;;;31.99;32.08;101895.94;5057182;28;20033;-43
2022/07/23 10:56:50;;;;;;;2.78;2.00;;;;;;;32.06;32.19;101888.44;5068672;28;20064;-43
2022/07/23 10:59:15;;;;;;;4.35;1.85;;;;;;;32.08;29.47;101883.56;5025211;28;20068;-42
2022/07/23 11:01:40;;;;;;;2.20;1.70;;;;;;;31.90;29.37;101890.78;5068665;28;20097;-44
2022/07/23 11:04:08;;;;;;;2.35;1.67;;;;;;;32.00;29.38;101887.44;5066598;28;20303;-44
2022/07/23 11:06:49;;;;;;;3.42;1.67;;;;;;;32.43;30.67;101891.00;5062974;28;20055;-44
2022/07/23 11:09:39;;;;;;;2.90;1.50;;;;;;;32.74;31.48;101884.31;5068211;28;20020;-44
2022/07/23 11:12:13;;;;;;;2.22;1.38;;;;;;;32.78;29.98;101880.00;5088359;28;20036;-45
2022/07/23 11:15:08;;;;;;;2.88;1.30;;;;;;;32.82;30.31;101883.09;5092342;28;20029;-45
2022/07/23 11:17:37;;;;;;;2.08;1.80;;;;;;;32.13;28.49;101880.94;5092031;28;20092;-47
2022/07/23 11:20:08;;;;;;;3.72;1.50;;;;;;;32.73;29.12;101881.81;5087111;28;20029;-47
2022/07/23 11:22:45;;;;;;;3.50;1.27;;;;;;;32.53;27.52;101885.72;5101789;28;20055;-48
2022/07/23 11:25:13;;;;;;;1.20;1.13;;;;;;;32.56;27.26;101879.75;5095197;28;20099;-46
2022/07/23 11:27:43;;;;;;;3.35;1.50;;;;;;;32.67;28.79;101877.25;5093836;28;20064;-45